Time;durP1;ratioP1;P1;durP2;ratioP2;P2;SDS_P1;SDS_P2;PMS_P1;PMS_P2;Temp;Humidity;BMP_temperature;BMP_pressure;BME280_temperature;BME280_humidity;BME280_pressure;Samples;Min_cycle;Max_cycle;Signal;HPM_P1;HPM_P2
2022/05/20 00:01:18;;;;;;;1.10;1.00;;;26.90;68.00;;;;;;5075313;28;20449;-86
2022/05/20 00:03:45;;;;;;;1.27;1.17;;;26.90;67.90;;;;;;5075327;28;20449;-86
2022/05/20 00:06:11;;;;;;;1.20;1.10;;;26.90;67.80;;;;;;5075568;28;20791;-86
2022/05/20 00:08:39;;;;;;;1.60;1.00;;;27.00;67.90;;;;;;5075283;28;20445;-86
2022/05/20 00:11:06;;;;;;;1.20;1.10;;;26.90;67.80;;;;;;5075223;28;20447;-88
2022/05/20 00:13:34;;;;;;;1.40;1.30;;;26.90;67.70;;;;;;5075096;28;20827;-86
2022/05/20 00:16:00;;;;;;;1.20;1.10;;;26.80;67.60;;;;;;5075255;28;20467;-88
2022/05/20 00:18:29;;;;;;;1.10;1.00;;;26.90;67.60;;;;;;5075139;28;20488;-89
2022/05/20 00:20:57;;;;;;;1.47;1.37;;;26.90;67.60;;;;;;5074888;28;20437;-86
2022/05/20 00:23:23;;;;;;;1.37;1.20;;;26.90;67.60;;;;;;5074968;28;20775;-86
2022/05/20 00:25:50;;;;;;;1.20;1.10;;;26.90;67.60;;;;;;5074982;28;20451;-86
2022/05/20 00:28:20;;;;;;;1.20;1.10;;;26.80;67.60;;;;;;5074975;28;20448;-87
2022/05/20 00:30:48;;;;;;;1.23;1.13;;;26.80;67.50;;;;;;5074143;28;20800;-86
2022/05/20 00:33:15;;;;;;;1.20;1.07;;;26.80;67.40;;;;;;5074859;28;20441;-88
2022/05/20 00:35:45;;;;;;;1.10;1.00;;;26.80;67.40;;;;;;5074581;28;21009;-87
2022/05/20 00:38:12;;;;;;;1.30;1.20;;;26.80;68.20;;;;;;5074741;28;20483;-88
2022/05/20 00:40:39;;;;;;;1.20;1.10;;;26.80;67.30;;;;;;5074637;28;20444;-86
2022/05/20 00:43:11;;;;;;;1.20;1.03;;;26.80;67.30;;;;;;5074503;28;20461;-86
2022/05/20 00:45:39;;;;;;;1.10;0.90;;;26.80;67.20;;;;;;5074606;28;20441;-86
2022/05/20 00:48:06;;;;;;;1.20;1.10;;;26.80;67.20;;;;;;5074638;28;20795;-86
2022/05/20 00:50:34;;;;;;;1.20;1.10;;;26.80;67.20;;;;;;5074346;28;20436;-86
2022/05/20 00:53:02;;;;;;;1.10;1.00;;;26.80;67.10;;;;;;5074260;28;20440;-88
2022/05/20 00:55:30;;;;;;;1.20;1.10;;;26.80;67.20;;;;;;5074308;28;20433;-87
2022/05/20 00:58:01;;;;;;;1.27;1.17;;;26.80;67.10;;;;;;5074281;28;20484;-86
2022/05/20 01:00:30;;;;;;;1.07;0.93;;;26.80;67.10;;;;;;5074171;28;20441;-86
2022/05/20 01:03:00;;;;;;;1.10;0.90;;;26.80;67.10;;;;;;5074213;28;20452;-88
2022/05/20 01:05:31;;;;;;;1.20;1.10;;;26.80;67.00;;;;;;5074088;28;20440;-86
2022/05/20 01:07:58;;;;;;;1.20;1.10;;;26.80;67.10;;;;;;5074099;28;20447;-86
2022/05/20 01:10:27;;;;;;;0.90;0.80;;;26.80;67.00;;;;;;5074030;28;20437;-86
2022/05/20 01:12:54;;;;;;;1.03;0.93;;;26.80;67.00;;;;;;5074019;28;20464;-86
2022/05/20 01:15:21;;;;;;;1.00;0.90;;;26.80;67.00;;;;;;5073972;28;20440;-88
2022/05/20 01:17:50;;;;;;;1.37;1.27;;;26.80;67.00;;;;;;5073808;28;20477;-87
2022/05/20 01:20:20;;;;;;;1.40;0.90;;;26.80;67.00;;;;;;5073858;28;20441;-86
2022/05/20 01:22:50;;;;;;;1.10;1.00;;;26.80;67.00;;;;;;5073735;28;20919;-86
2022/05/20 01:25:17;;;;;;;1.13;1.03;;;26.80;67.00;;;;;;5073735;28;20507;-86
2022/05/20 01:27:43;;;;;;;1.27;1.17;;;26.80;67.00;;;;;;5073781;28;20972;-87
2022/05/20 01:30:13;;;;;;;1.20;1.10;;;26.80;67.00;;;;;;5073749;28;20807;-86
2022/05/20 01:32:40;;;;;;;1.00;0.90;;;26.80;67.00;;;;;;5073174;28;20468;-86
2022/05/20 01:35:12;;;;;;;1.10;0.90;;;26.80;67.00;;;;;;5073391;28;20832;-85
2022/05/20 01:37:39;;;;;;;1.00;0.90;;;26.80;67.00;;;;;;5073511;28;20445;-88
2022/05/20 01:40:09;;;;;;;1.20;0.93;;;26.80;67.00;;;;;;5073374;28;20437;-86
2022/05/20 01:42:41;;;;;;;1.00;0.83;;;26.80;66.90;;;;;;5073318;28;20469;-86
2022/05/20 01:45:14;;;;;;;0.97;0.73;;;26.80;66.90;;;;;;5073839;28;20794;-86
2022/05/20 01:47:47;;;;;;;1.60;1.10;;;26.80;66.90;;;;;;5073652;28;20528;-86
2022/05/20 01:50:20;;;;;;;1.20;1.07;;;26.80;66.90;;;;;;5073384;28;20433;-86
2022/05/20 01:52:54;;;;;;;1.40;1.30;;;26.80;66.90;;;;;;5073357;28;20542;-86
2022/05/20 01:55:28;;;;;;;1.20;1.00;;;26.80;66.90;;;;;;5073444;28;20444;-86
2022/05/20 01:58:01;;;;;;;1.30;1.00;;;26.80;66.90;;;;;;5073581;28;20796;-85
2022/05/20 02:00:30;;;;;;;1.10;0.90;;;26.80;66.90;;;;;;5073236;28;20445;-86
2022/05/20 02:03:02;;;;;;;1.10;1.00;;;26.80;66.90;;;;;;5073167;28;20441;-86
2022/05/20 02:05:32;;;;;;;1.10;0.90;;;26.80;66.90;;;;;;5073316;28;20451;-86
2022/05/20 02:08:04;;;;;;;1.10;0.90;;;26.80;66.90;;;;;;5073228;28;20440;-86
2022/05/20 02:10:36;;;;;;;1.00;0.87;;;26.80;66.80;;;;;;5073195;28;20445;-87
2022/05/20 02:13:05;;;;;;;1.00;0.80;;;26.80;66.90;;;;;;5073202;28;20568;-86
2022/05/20 02:15:39;;;;;;;1.00;0.87;;;26.80;66.80;;;;;;5094275;28;20416;-87
2022/05/20 02:18:10;;;;;;;1.10;1.00;;;26.80;66.80;;;;;;5098154;28;20463;-88
2022/05/20 02:20:41;;;;;;;1.20;0.90;;;26.80;66.80;;;;;;5096720;28;20429;-87
2022/05/20 02:23:22;;;;;;;1.10;1.00;;;26.80;66.80;;;;;;5075790;28;20425;-90
2022/05/20 02:25:53;;;;;;;1.30;1.10;;;26.80;66.80;;;;;;5073058;28;20912;-88
2022/05/20 02:28:24;;;;;;;1.10;1.00;;;26.80;66.80;;;;;;5073182;28;20437;-87
2022/05/20 02:30:53;;;;;;;1.00;0.90;;;26.80;66.70;;;;;;5073402;28;20441;-89
2022/05/20 02:33:22;;;;;;;1.00;0.90;;;26.80;66.70;;;;;;5073028;28;20437;-88
2022/05/20 02:35:50;;;;;;;1.00;0.80;;;26.80;66.80;;;;;;5072981;28;20473;-89
2022/05/20 02:38:21;;;;;;;1.20;1.10;;;26.80;66.70;;;;;;5073207;28;20486;-86
2022/05/20 02:40:51;;;;;;;1.20;0.90;;;26.80;66.70;;;;;;5072939;28;20447;-87
2022/05/20 02:43:18;;;;;;;0.90;0.80;;;26.80;66.60;;;;;;5073096;28;20490;-87
2022/05/20 02:45:47;;;;;;;1.20;1.10;;;26.80;66.70;;;;;;5072932;28;20433;-87
2022/05/20 02:48:17;;;;;;;1.10;1.00;;;26.80;66.70;;;;;;5072785;28;20449;-86
2022/05/20 02:50:44;;;;;;;1.00;0.90;;;26.80;66.60;;;;;;5072925;28;20523;-87
2022/05/20 02:53:12;;;;;;;1.00;0.90;;;26.80;66.60;;;;;;5072898;28;20463;-89
2022/05/20 02:55:39;;;;;;;1.10;0.90;;;26.80;66.70;;;;;;5076346;28;20440;-89
2022/05/20 02:58:07;;;;;;;1.23;1.13;;;26.80;66.70;;;;;;5076511;28;20445;-88
2022/05/20 03:06:02;;;;;;;1.63;1.20;;;26.70;66.60;;;;;;5076748;28;20412;-86
2022/05/20 03:08:29;;;;;;;1.27;1.03;;;26.70;66.60;;;;;;5076640;28;20877;-88
2022/05/20 03:10:56;;;;;;;1.03;0.93;;;26.70;66.60;;;;;;5076627;28;20860;-88
2022/05/20 03:13:24;;;;;;;1.10;1.00;;;26.70;66.60;;;;;;5076441;28;21001;-88
2022/05/20 03:15:51;;;;;;;1.03;0.90;;;26.70;66.60;;;;;;5076329;28;20443;-87
2022/05/20 03:18:18;;;;;;;1.10;0.97;;;26.70;66.60;;;;;;5076215;28;20559;-86
2022/05/20 03:20:45;;;;;;;1.17;1.07;;;26.70;66.60;;;;;;5076254;28;20443;-87
2022/05/20 03:23:12;;;;;;;1.20;1.07;;;26.70;66.50;;;;;;5076210;28;20931;-86
2022/05/20 03:25:39;;;;;;;1.20;1.10;;;26.70;66.50;;;;;;5076164;28;20437;-86
2022/05/20 03:28:06;;;;;;;1.00;0.90;;;26.70;66.50;;;;;;5076295;28;20433;-86
2022/05/20 03:30:34;;;;;;;1.30;1.00;;;26.70;66.60;;;;;;5076221;28;20437;-87
2022/05/20 03:33:01;;;;;;;1.03;0.93;;;26.70;66.50;;;;;;5076202;28;20437;-88
2022/05/20 03:35:28;;;;;;;1.10;1.00;;;26.70;66.50;;;;;;5076020;28;20475;-86
2022/05/20 03:37:55;;;;;;;1.00;0.83;;;26.70;66.50;;;;;;5075926;28;20443;-87
2022/05/20 03:40:21;;;;;;;1.10;1.00;;;26.70;66.50;;;;;;5075810;28;20481;-88
2022/05/20 03:42:48;;;;;;;1.17;1.07;;;26.70;66.50;;;;;;5075978;28;20831;-87
2022/05/20 03:45:15;;;;;;;1.10;1.00;;;26.70;66.50;;;;;;5076047;28;20557;-88
2022/05/20 03:47:43;;;;;;;1.30;1.20;;;26.70;66.50;;;;;;5075743;28;20451;-88
2022/05/20 03:50:10;;;;;;;1.00;0.90;;;26.70;66.50;;;;;;5075782;28;20445;-87
2022/05/20 03:52:37;;;;;;;1.10;1.00;;;26.70;66.50;;;;;;5075761;28;20433;-88
2022/05/20 03:55:05;;;;;;;1.10;0.97;;;26.70;66.40;;;;;;5075833;28;20437;-86
2022/05/20 03:57:32;;;;;;;1.00;0.90;;;26.70;66.50;;;;;;5075751;28;20440;-89
2022/05/20 03:59:59;;;;;;;1.10;1.00;;;26.70;66.50;;;;;;5075565;28;20573;-87
2022/05/20 04:02:26;;;;;;;1.00;0.90;;;26.70;66.50;;;;;;5075387;28;20441;-89
2022/05/20 04:04:55;;;;;;;1.37;1.00;;;26.70;66.40;;;;;;5074854;28;20447;-89
2022/05/20 04:07:24;;;;;;;1.10;1.00;;;26.70;66.40;;;;;;5074913;28;20472;-87
2022/05/20 04:09:51;;;;;;;1.30;1.13;;;26.70;66.40;;;;;;5075499;28;20533;-89
2022/05/20 04:12:24;;;;;;;1.00;0.90;;;26.70;66.40;;;;;;5075384;28;20471;-87
2022/05/20 04:14:51;;;;;;;1.20;1.10;;;26.70;66.40;;;;;;5075412;28;20443;-87
2022/05/20 04:17:18;;;;;;;1.20;1.10;;;26.70;66.40;;;;;;5075370;28;20440;-86
2022/05/20 04:19:45;;;;;;;1.20;1.10;;;26.70;66.40;;;;;;5074822;28;20566;-88
2022/05/20 04:22:17;;;;;;;1.10;1.00;;;26.70;66.40;;;;;;5075212;28;20437;-86
2022/05/20 04:24:44;;;;;;;1.20;1.03;;;26.70;66.40;;;;;;5075333;28;20452;-86
2022/05/20 04:27:10;;;;;;;1.20;1.00;;;26.70;66.40;;;;;;5075203;28;20425;-86
2022/05/20 04:29:37;;;;;;;1.10;1.00;;;26.70;66.40;;;;;;5074997;28;20440;-86
2022/05/20 04:32:05;;;;;;;1.30;1.20;;;26.70;66.40;;;;;;5082544;28;20506;-86
2022/05/20 04:34:31;;;;;;;1.60;1.10;;;26.70;66.30;;;;;;5084123;28;20476;-87
2022/05/20 04:36:58;;;;;;;1.50;1.30;;;26.70;66.30;;;;;;5085241;28;20437;-84
2022/05/20 04:39:27;;;;;;;1.20;1.10;;;26.70;66.30;;;;;;5078634;28;20486;-87
2022/05/20 04:47:25;;;;;;;1.20;1.10;;;26.70;66.30;;;;;;5074818;28;20428;-88
2022/05/20 04:49:52;;;;;;;1.23;1.13;;;26.70;66.40;;;;;;5076012;28;20433;-87
2022/05/20 04:52:19;;;;;;;1.20;1.10;;;26.80;66.50;;;;;;5074926;28;20445;-85
2022/05/20 04:54:50;;;;;;;1.10;0.93;;;26.70;66.30;;;;;;5075021;28;20436;-87
2022/05/20 04:57:23;;;;;;;1.20;1.10;;;26.70;66.30;;;;;;5075599;28;20934;-86
2022/05/20 04:59:51;;;;;;;1.10;1.00;;;26.70;66.40;;;;;;5074761;28;20484;-86
2022/05/20 05:02:18;;;;;;;1.10;1.00;;;26.70;66.30;;;;;;5074386;28;20487;-85
2022/05/20 05:04:45;;;;;;;1.20;1.10;;;26.70;66.30;;;;;;5074315;28;20447;-88
2022/05/20 05:07:11;;;;;;;1.30;1.20;;;26.70;66.30;;;;;;5074323;28;20536;-86
2022/05/20 05:09:38;;;;;;;1.20;1.10;;;26.70;66.30;;;;;;5074064;28;20790;-86
2022/05/20 05:12:08;;;;;;;1.10;1.00;;;26.70;66.20;;;;;;5074069;28;20456;-87
2022/05/20 05:14:39;;;;;;;1.13;1.03;;;26.70;66.20;;;;;;5073748;28;20460;-87
2022/05/20 05:17:08;;;;;;;1.20;1.00;;;26.70;66.20;;;;;;5072594;28;20449;-87
2022/05/20 05:19:36;;;;;;;1.20;1.10;;;26.70;66.30;;;;;;5072427;28;20480;-86
2022/05/20 05:22:05;;;;;;;1.40;1.30;;;26.70;66.20;;;;;;5073529;28;20444;-86
2022/05/20 05:24:32;;;;;;;1.20;1.10;;;26.70;66.20;;;;;;5073571;28;20437;-89
2022/05/20 05:26:59;;;;;;;1.17;1.07;;;26.70;66.30;;;;;;5073531;28;20437;-87
2022/05/20 05:29:27;;;;;;;1.20;1.10;;;26.70;66.20;;;;;;5073394;28;20451;-87
2022/05/20 05:31:54;;;;;;;1.00;0.90;;;26.70;66.20;;;;;;5073441;28;20443;-87
2022/05/20 05:34:21;;;;;;;1.30;1.20;;;26.70;66.20;;;;;;5073646;28;20822;-89
2022/05/20 05:36:48;;;;;;;1.17;1.07;;;26.70;66.20;;;;;;5073866;28;20437;-89
2022/05/20 05:39:15;;;;;;;1.20;1.00;;;26.70;66.20;;;;;;5073651;28;20484;-87
2022/05/20 05:41:41;;;;;;;1.10;1.00;;;26.80;66.40;;;;;;5073649;28;20452;-87
2022/05/20 05:44:08;;;;;;;1.20;1.10;;;26.70;66.30;;;;;;5073778;28;20527;-87
2022/05/20 05:46:36;;;;;;;1.20;1.00;;;26.70;66.30;;;;;;5073801;28;20475;-86
2022/05/20 05:49:04;;;;;;;1.30;1.20;;;26.70;66.30;;;;;;5073571;28;20527;-89
2022/05/20 05:51:31;;;;;;;1.13;1.03;;;26.70;66.30;;;;;;5073700;28;20444;-87
2022/05/20 05:53:58;;;;;;;1.40;1.30;;;26.70;66.30;;;;;;5073546;28;20437;-87
2022/05/20 05:56:24;;;;;;;1.30;1.20;;;26.70;66.30;;;;;;5073430;28;20440;-86
2022/05/20 05:58:51;;;;;;;1.30;1.20;;;26.70;66.30;;;;;;5073226;28;20436;-86
2022/05/20 06:01:18;;;;;;;1.10;0.97;;;26.70;66.30;;;;;;5073439;28;20448;-87
2022/05/20 06:03:46;;;;;;;1.30;1.20;;;26.70;66.30;;;;;;5073434;28;20520;-87
2022/05/20 06:06:13;;;;;;;1.30;1.20;;;26.70;66.30;;;;;;5073532;28;20543;-89
2022/05/20 06:08:40;;;;;;;1.20;1.10;;;26.70;66.30;;;;;;5073547;28;20433;-88
2022/05/20 06:11:07;;;;;;;1.20;1.10;;;26.70;66.40;;;;;;5073336;28;20475;-89
2022/05/20 06:13:34;;;;;;;1.10;1.00;;;26.70;67.30;;;;;;5073347;28;20522;-86
2022/05/20 06:16:01;;;;;;;1.00;0.90;;;26.70;66.30;;;;;;5073129;28;20435;-88
2022/05/20 06:18:28;;;;;;;1.17;1.07;;;26.70;66.30;;;;;;5073183;28;20433;-86
2022/05/20 06:20:57;;;;;;;1.27;1.17;;;26.70;66.30;;;;;;5073131;28;20489;-86
2022/05/20 06:23:24;;;;;;;1.13;1.03;;;26.70;66.30;;;;;;5073250;28;20455;-86
2022/05/20 06:25:51;;;;;;;1.10;1.00;;;26.70;66.40;;;;;;5073137;28;20528;-86
2022/05/20 06:28:19;;;;;;;1.30;1.20;;;26.70;66.30;;;;;;5073137;28;20444;-86
2022/05/20 06:30:47;;;;;;;1.10;1.00;;;26.70;66.30;;;;;;5077721;28;20443;-86
2022/05/20 06:33:14;;;;;;;1.27;1.17;;;26.70;67.20;;;;;;5077629;28;20448;-86
2022/05/20 06:41:11;;;;;;;1.50;1.40;;;26.70;66.50;;;;;;5077397;28;20487;-86
2022/05/20 06:43:39;;;;;;;1.30;1.20;;;26.70;66.60;;;;;;5077268;28;20972;-86
2022/05/20 06:46:05;;;;;;;1.33;1.20;;;26.70;66.60;;;;;;5076966;28;20433;-86
2022/05/20 06:48:42;;;;;;;1.50;1.40;;;26.70;66.60;;;;;;5077191;28;20443;-86
2022/05/20 06:51:11;;;;;;;1.20;1.10;;;26.70;66.60;;;;;;5077945;28;20955;-86
2022/05/20 06:53:39;;;;;;;1.53;1.43;;;26.80;66.70;;;;;;5093071;28;20455;-86
2022/05/20 06:56:07;;;;;;;1.80;1.70;;;26.70;66.60;;;;;;5100269;28;20516;-86
2022/05/20 06:58:34;;;;;;;1.80;1.70;;;26.70;66.60;;;;;;5096370;28;20519;-85
2022/05/20 07:01:01;;;;;;;1.50;1.23;;;26.70;66.60;;;;;;5085942;28;20484;-86
2022/05/20 07:03:28;;;;;;;2.00;1.90;;;26.70;66.70;;;;;;5077367;28;20514;-87
2022/05/20 07:05:55;;;;;;;1.90;1.80;;;26.70;66.60;;;;;;5077021;28;20436;-85
2022/05/20 07:08:22;;;;;;;2.17;2.07;;;26.70;66.70;;;;;;5076587;28;20443;-86
2022/05/20 07:10:50;;;;;;;2.03;1.93;;;26.80;66.80;;;;;;5076510;28;20429;-86
2022/05/20 07:13:17;;;;;;;1.80;1.70;;;26.80;66.80;;;;;;5076533;28;20821;-86
2022/05/20 07:15:44;;;;;;;1.90;1.80;;;26.80;66.80;;;;;;5076521;28;20444;-88
2022/05/20 07:18:11;;;;;;;1.77;1.67;;;26.80;66.80;;;;;;5076442;28;20455;-88
2022/05/20 07:20:37;;;;;;;1.47;1.37;;;26.80;66.80;;;;;;5076045;28;20495;-86
2022/05/20 07:23:06;;;;;;;2.27;2.13;;;26.80;66.90;;;;;;5076217;28;20468;-86
2022/05/20 07:25:33;;;;;;;1.60;1.50;;;26.80;66.90;;;;;;5076230;28;20531;-86
2022/05/20 07:28:01;;;;;;;2.90;2.70;;;26.80;66.90;;;;;;5075963;28;20468;-87
2022/05/20 07:30:28;;;;;;;1.80;1.70;;;26.80;67.00;;;;;;5075991;28;20444;-86
2022/05/20 07:32:55;;;;;;;1.90;1.80;;;26.80;67.00;;;;;;5075991;28;20867;-87
2022/05/20 07:35:22;;;;;;;2.03;1.93;;;26.80;67.00;;;;;;5075818;28;20567;-86
2022/05/20 07:37:50;;;;;;;2.43;2.23;;;26.80;67.00;;;;;;5076029;28;20440;-86
2022/05/20 07:40:18;;;;;;;2.10;2.00;;;26.80;67.00;;;;;;5075598;28;20484;-85
2022/05/20 07:42:46;;;;;;;2.43;2.33;;;26.90;67.10;;;;;;5075814;28;20461;-86
2022/05/20 07:45:15;;;;;;;2.10;2.00;;;26.90;67.00;;;;;;5076136;28;20433;-86
2022/05/20 07:47:42;;;;;;;2.17;2.07;;;26.90;67.00;;;;;;5076036;28;20441;-86
2022/05/20 07:50:10;;;;;;;2.33;2.13;;;26.80;66.90;;;;;;5075851;28;20924;-87
2022/05/20 07:55:24;;;;;;;2.10;2.00;;;26.90;67.10;;;;;;5075722;28;20428;-86
2022/05/20 07:57:53;;;;;;;2.47;2.27;;;26.90;67.10;;;;;;5075721;28;20532;-86
2022/05/20 08:00:22;;;;;;;2.40;2.20;;;26.90;67.00;;;;;;5075287;28;20491;-86
2022/05/20 08:02:53;;;;;;;2.67;2.57;;;26.90;67.00;;;;;;5075551;28;20436;-87
2022/05/20 08:05:22;;;;;;;2.33;2.13;;;26.90;67.70;;;;;;5075607;28;20447;-87
2022/05/20 08:07:51;;;;;;;2.67;2.47;;;26.90;66.90;;;;;;5075442;28;20444;-87
2022/05/20 08:10:21;;;;;;;2.57;2.47;;;26.90;66.90;;;;;;5075736;28;20459;-86
2022/05/20 08:12:48;;;;;;;2.67;2.47;;;26.90;66.90;;;;;;5075274;28;20468;-86
2022/05/20 08:15:16;;;;;;;2.40;2.23;;;27.00;66.90;;;;;;5075483;28;20779;-86
2022/05/20 08:17:45;;;;;;;2.33;2.23;;;27.00;66.90;;;;;;5075307;28;20445;-86
2022/05/20 08:20:18;;;;;;;2.20;2.10;;;27.00;66.80;;;;;;5075228;28;20491;-86
2022/05/20 08:22:45;;;;;;;2.40;2.30;;;27.00;66.70;;;;;;5075552;28;20506;-86
2022/05/20 08:25:12;;;;;;;2.50;2.30;;;27.00;66.60;;;;;;5075422;28;20779;-86
2022/05/20 08:27:38;;;;;;;2.27;2.10;;;27.00;66.60;;;;;;5074983;28;20538;-88
2022/05/20 08:30:09;;;;;;;2.70;2.50;;;27.00;66.60;;;;;;5075062;28;20432;-86
2022/05/20 08:32:36;;;;;;;2.13;2.03;;;27.10;66.60;;;;;;5074866;28;20437;-86
2022/05/20 08:35:05;;;;;;;2.50;2.30;;;27.10;66.60;;;;;;5074669;28;20472;-87
2022/05/20 08:37:33;;;;;;;2.40;2.30;;;27.10;66.60;;;;;;5074683;28;20440;-86
2022/05/20 08:40:01;;;;;;;2.37;2.27;;;27.10;66.50;;;;;;5074557;28;20530;-86
2022/05/20 08:42:31;;;;;;;1.90;1.80;;;27.10;66.40;;;;;;5074542;28;20469;-86
2022/05/20 08:44:59;;;;;;;2.40;2.30;;;27.10;66.30;;;;;;5074634;28;20437;-86
2022/05/20 08:47:30;;;;;;;2.30;2.20;;;27.10;66.30;;;;;;5074457;28;20437;-87
2022/05/20 08:50:00;;;;;;;1.90;1.80;;;27.10;66.30;;;;;;5074585;28;20448;-86
2022/05/20 08:52:29;;;;;;;2.00;1.90;;;27.10;66.20;;;;;;5073869;28;20440;-86
2022/05/20 08:54:56;;;;;;;2.50;2.30;;;27.10;66.30;;;;;;5074363;28;20433;-86
2022/05/20 08:57:25;;;;;;;1.97;1.87;;;27.10;66.30;;;;;;5074251;28;20443;-86
2022/05/20 08:59:52;;;;;;;2.77;1.87;;;27.10;66.30;;;;;;5074058;28;20440;-87
2022/05/20 09:02:20;;;;;;;2.30;2.10;;;27.10;66.20;;;;;;5074036;28;20443;-86
2022/05/20 09:04:47;;;;;;;1.90;1.80;;;27.10;66.30;;;;;;5074258;28;20449;-86
2022/05/20 09:07:16;;;;;;;2.00;1.90;;;27.10;66.30;;;;;;5074164;28;20526;-86
2022/05/20 09:09:48;;;;;;;2.33;2.23;;;27.10;66.30;;;;;;5074071;28;20961;-86
2022/05/20 09:12:27;;;;;;;2.13;2.00;;;27.10;66.40;;;;;;5073917;28;20465;-87
2022/05/20 09:17:46;;;;;;;2.50;2.30;;;27.10;66.50;;;;;;5073993;28;20436;-87
2022/05/20 09:20:20;;;;;;;1.80;1.70;;;27.00;66.50;;;;;;5074105;28;20909;-86
2022/05/20 09:22:59;;;;;;;2.10;2.00;;;27.10;66.60;;;;;;5073960;28;20522;-87
2022/05/20 09:25:29;;;;;;;2.20;2.10;;;27.10;66.60;;;;;;5073890;28;20440;-86
2022/05/20 09:28:13;;;;;;;2.30;2.20;;;27.00;66.60;;;;;;5073911;28;20444;-86
2022/05/20 09:30:42;;;;;;;2.00;1.90;;;27.00;66.60;;;;;;5073662;28;20506;-86
2022/05/20 09:33:13;;;;;;;2.20;2.10;;;27.00;66.60;;;;;;5073648;28;20436;-87
2022/05/20 09:35:40;;;;;;;2.70;2.50;;;27.00;66.60;;;;;;5073403;28;20468;-87
2022/05/20 09:38:11;;;;;;;2.87;2.67;;;27.00;66.70;;;;;;5073444;28;20470;-87
2022/05/20 09:40:41;;;;;;;1.77;1.67;;;27.10;66.70;;;;;;5073400;28;20488;-86
2022/05/20 09:43:10;;;;;;;2.37;2.13;;;27.10;66.70;;;;;;5073299;28;20473;-87
2022/05/20 09:45:43;;;;;;;1.60;1.50;;;27.10;66.60;;;;;;5073479;28;20441;-87
2022/05/20 09:48:11;;;;;;;2.07;1.97;;;27.10;66.70;;;;;;5073424;28;20794;-87
2022/05/20 09:50:39;;;;;;;2.47;2.27;;;27.10;66.60;;;;;;5073427;28;20936;-87
2022/05/20 09:53:24;;;;;;;2.40;2.20;;;27.10;66.60;;;;;;5073318;28;20487;-86
2022/05/20 09:56:12;;;;;;;1.93;1.83;;;27.10;66.60;;;;;;5073547;28;20468;-86
2022/05/20 09:58:40;;;;;;;2.60;2.40;;;27.10;66.70;;;;;;5073407;28;20441;-87
2022/05/20 10:01:12;;;;;;;2.40;2.20;;;27.10;66.80;;;;;;5073103;28;20835;-86
2022/05/20 10:03:43;;;;;;;1.93;1.83;;;27.10;66.60;;;;;;5073312;28;20436;-86
2022/05/20 10:06:18;;;;;;;2.33;1.90;;;27.10;66.60;;;;;;5073329;28;20486;-86
2022/05/20 10:08:51;;;;;;;2.20;2.10;;;27.20;66.70;;;;;;5073369;28;20868;-86
2022/05/20 10:11:24;;;;;;;2.80;2.10;;;27.20;66.60;;;;;;5073269;28;20455;-87
2022/05/20 10:13:56;;;;;;;2.20;2.07;;;27.20;66.60;;;;;;5073063;28;20457;-87
2022/05/20 10:16:31;;;;;;;2.00;1.90;;;27.20;66.60;;;;;;5073326;28;20445;-87
2022/05/20 10:19:06;;;;;;;2.73;2.53;;;27.20;66.50;;;;;;5073129;28;20440;-88
2022/05/20 10:21:49;;;;;;;2.00;1.90;;;27.30;66.70;;;;;;5073069;28;20487;-86
2022/05/20 10:24:41;;;;;;;2.20;2.10;;;27.30;66.60;;;;;;5073389;28;20448;-87
2022/05/20 10:27:12;;;;;;;2.00;1.90;;;27.30;67.50;;;;;;5073083;28;20464;-86
2022/05/20 10:32:41;;;;;;;2.20;2.10;;;27.30;66.70;;;;;;5073159;28;20512;-87
2022/05/20 10:35:12;;;;;;;2.20;2.10;;;27.30;66.80;;;;;;5072607;28;20499;-87
2022/05/20 10:38:03;;;;;;;2.40;2.23;;;27.30;66.80;;;;;;5072802;28;20464;-86
2022/05/20 10:40:37;;;;;;;2.20;2.10;;;27.30;66.70;;;;;;5056072;28;20542;-88
2022/05/20 10:43:30;;;;;;;2.90;2.43;;;27.30;66.70;;;;;;5072799;28;20459;-86
2022/05/20 10:49:03;;;;;;;2.77;2.33;;;27.30;66.80;;;;;;5073038;28;20466;-87
2022/05/20 10:51:52;;;;;;;2.77;2.57;;;27.30;66.90;;;;;;5072731;28;20794;-86
2022/05/20 10:55:02;;;;;;;2.50;2.30;;;27.30;67.00;;;;;;5072735;28;20440;-86
2022/05/20 10:57:56;;;;;;;3.00;2.57;;;27.30;67.10;;;;;;4971904;28;20445;-86
2022/05/20 11:00:29;;;;;;;2.40;2.30;;;27.30;67.20;;;;;;5067165;28;20464;-87
2022/05/20 11:03:24;;;;;;;2.67;2.47;;;27.30;67.20;;;;;;5072698;28;20797;-87
2022/05/20 11:06:18;;;;;;;2.67;2.50;;;27.30;67.00;;;;;;5072524;28;20467;-90
2022/05/20 11:08:56;;;;;;;2.63;2.53;;;27.40;67.20;;;;;;5068337;28;20520;-87
2022/05/20 11:11:41;;;;;;;1.80;1.70;;;27.40;67.20;;;;;;5071749;28;20447;-87
2022/05/20 11:14:26;;;;;;;2.33;2.23;;;27.40;67.10;;;;;;5072620;28;20504;-87
2022/05/20 11:17:20;;;;;;;3.10;2.77;;;27.40;67.10;;;;;;5076266;28;20446;-87
2022/05/20 11:20:07;;;;;;;3.17;2.67;;;27.50;67.20;;;;;;5032317;28;20440;-87
2022/05/20 11:23:23;;;;;;;2.20;2.10;;;27.40;67.00;;;;;;5076088;28;20499;-86
2022/05/20 11:26:16;;;;;;;1.93;1.83;;;27.50;67.10;;;;;;4995629;28;20444;-87
2022/05/20 11:29:02;;;;;;;4.30;3.90;;;27.50;67.20;;;;;;5058845;28;20445;-86
2022/05/20 11:31:44;;;;;;;2.27;2.17;;;27.50;67.20;;;;;;5076968;28;20451;-85
2022/05/20 11:34:32;;;;;;;2.27;2.07;;;27.50;67.20;;;;;;5076483;28;20471;-87
2022/05/20 11:37:11;;;;;;;2.87;2.67;;;27.40;67.10;;;;;;5076858;28;20436;-88
2022/05/20 11:40:04;;;;;;;1.93;1.83;;;27.50;67.30;;;;;;5076607;28;20795;-86
2022/05/20 11:42:44;;;;;;;2.60;2.40;;;27.50;67.30;;;;;;5072826;28;20492;-87
2022/05/20 11:45:17;;;;;;;2.60;2.40;;;27.60;67.40;;;;;;5075881;28;20441;-88
2022/05/20 11:48:13;;;;;;;3.43;2.80;;;27.60;67.30;;;;;;5075715;28;20908;-87
2022/05/20 11:51:14;;;;;;;2.73;2.53;;;27.60;67.40;;;;;;5075542;28;20451;-87
2022/05/20 11:53:47;;;;;;;2.40;2.20;;;27.60;67.70;;;;;;5075655;28;20449;-87
2022/05/20 11:56:22;;;;;;;2.70;2.50;;;27.50;67.60;;;;;;5075582;28;20437;-88
2022/05/20 11:58:54;;;;;;;2.40;2.20;;;27.60;67.60;;;;;;5075588;28;20447;-88
2022/05/20 12:01:22;;;;;;;2.70;2.50;;;27.60;67.60;;;;;;5075496;28;20563;-89
2022/05/20 12:04:09;;;;;;;2.60;2.40;;;27.50;67.60;;;;;;5075519;28;20441;-87
2022/05/20 12:06:43;;;;;;;3.63;3.43;;;27.50;67.60;;;;;;5075516;28;20436;-88
2022/05/20 12:09:29;;;;;;;3.10;2.87;;;27.60;67.90;;;;;;5075469;28;20429;-87
2022/05/20 12:12:25;;;;;;;2.13;2.03;;;27.60;67.70;;;;;;5075305;28;20895;-87
2022/05/20 12:15:21;;;;;;;2.87;2.53;;;27.60;67.70;;;;;;5018355;28;20445;-87
2022/05/20 12:17:50;;;;;;;2.80;2.60;;;27.60;67.80;;;;;;5074180;28;20932;-88
2022/05/20 12:26:40;;;;;;;2.90;2.70;;;27.60;67.80;;;;;;5074324;28;20416;-88
2022/05/20 12:29:40;;;;;;;2.97;2.77;;;27.60;68.00;;;;;;5075284;28;20829;-89
2022/05/20 12:32:45;;;;;;;2.43;2.33;;;27.60;68.00;;;;;;5075229;28;20842;-87
2022/05/20 12:35:15;;;;;;;2.87;2.67;;;27.60;67.90;;;;;;5059049;28;20484;-88
2022/05/20 12:38:21;;;;;;;2.63;2.43;;;27.50;68.10;;;;;;5074761;28;20441;-88
2022/05/20 12:40:58;;;;;;;3.30;3.10;;;27.50;68.10;;;;;;5074611;28;20445;-87
2022/05/20 12:44:02;;;;;;;3.10;2.90;;;27.50;68.40;;;;;;5074739;28;20467;-88
2022/05/20 12:46:59;;;;;;;2.80;2.60;;;27.50;68.50;;;;;;5074701;28;20484;-88
2022/05/20 12:49:28;;;;;;;2.77;2.60;;;27.50;68.40;;;;;;5074669;28;20499;-88
2022/05/20 12:52:08;;;;;;;2.97;2.77;;;27.50;68.60;;;;;;5074789;28;20449;-87
2022/05/20 12:54:39;;;;;;;3.33;3.13;;;27.50;68.60;;;;;;5074571;28;20445;-87
2022/05/20 12:57:10;;;;;;;5.70;3.20;;;27.40;68.70;;;;;;5074606;28;20449;-86
2022/05/20 12:59:36;;;;;;;3.40;3.20;;;27.40;68.70;;;;;;5074283;28;20440;-87
2022/05/20 13:02:10;;;;;;;2.90;2.70;;;27.40;68.80;;;;;;5074100;28;20484;-86
2022/05/20 13:04:40;;;;;;;3.43;3.23;;;27.40;68.80;;;;;;5074223;28;20440;-86
2022/05/20 13:07:12;;;;;;;3.50;3.30;;;27.40;68.90;;;;;;5074357;28;20467;-86
2022/05/20 13:09:42;;;;;;;3.63;3.43;;;27.40;68.90;;;;;;5074194;28;20844;-88
2022/05/20 13:12:18;;;;;;;3.03;2.83;;;27.40;69.90;;;;;;5073977;28;20461;-86
2022/05/20 13:14:45;;;;;;;3.30;3.07;;;27.40;69.00;;;;;;5074086;28;20999;-86
2022/05/20 13:17:12;;;;;;;3.00;2.80;;;27.30;69.00;;;;;;5074005;28;20437;-86
2022/05/20 13:19:46;;;;;;;3.60;3.40;;;27.30;69.10;;;;;;5073939;28;20467;-86
2022/05/20 13:22:15;;;;;;;3.23;3.03;;;27.30;69.10;;;;;;5073841;28;20512;-87
2022/05/20 13:24:42;;;;;;;3.47;3.27;;;27.30;69.10;;;;;;5073847;28;20448;-87
2022/05/20 13:27:17;;;;;;;3.30;3.10;;;27.30;69.10;;;;;;5073775;28;20527;-86
2022/05/20 13:29:46;;;;;;;2.50;2.40;;;27.30;69.10;;;;;;5073887;28;20448;-86
2022/05/20 13:32:15;;;;;;;3.73;3.53;;;27.30;69.20;;;;;;5073795;28;20437;-86
2022/05/20 13:34:42;;;;;;;3.30;3.10;;;27.30;69.30;;;;;;5073041;28;20602;-87
2022/05/20 13:37:11;;;;;;;3.37;3.17;;;27.30;69.20;;;;;;5073477;28;20444;-87
2022/05/20 13:39:39;;;;;;;3.37;3.17;;;27.30;69.30;;;;;;5073621;28;20449;-86
2022/05/20 13:42:08;;;;;;;3.13;2.93;;;27.30;69.20;;;;;;5073240;28;20602;-86
2022/05/20 13:44:39;;;;;;;3.33;3.13;;;27.20;69.20;;;;;;5073401;28;20452;-85